Falcon — WBE7134 — position and weather

sailwx.info

Track history (hours):
 
Tides and Currents Weather Stations Pressure Air Temp Water Temp Dewpoint Dewpoint Depression Visibility Wind Speed Wind Dir Waves Ship Positions

Falcon

Owner: Allied Transportation Company, NORFOLK, VA. More information available from US FCC via Universal Licensing System and Coast Guard Vessel Documentation Center.

Last reported at 2018-Jun-24 01:00 UTC. Time now 2018-Jun-25 00:25 UTC.
Position N 40°52' W 073°56'.

Length 37 m; draft 6 m.

Type: Tug. MMSI: 366976720.

Date/timePositionNaut miles runAvg speedWind from/ knotsBaromVisibWave heightAir tempDewpointWater temp
2018-Jun-24 01:00N 40°52' W 073°56'4 7.3
2018-Jun-24 00:30N 40°49' W 073°58'4 7.1
2018-Jun-24 00:00N 40°46' W 074°01'4 7.2
2018-Jun-23 23:30N 40°42' W 074°02'4 7.0
2018-Jun-23 23:00N 40°39' W 074°03'3 6.9
2018-Jun-23 22:30N 40°36' W 074°02'3 6.9
2018-Jun-23 22:00N 40°32' W 074°01'3 5.7
2018-Jun-23 21:30N 40°31' W 073°58'12 4.6
2018-Jun-23 19:01N 40°19' W 073°54'0 5.3
2018-Jun-23 19:00N 40°19' W 073°54'4 5.5
2018-Jun-23 18:22N 40°16' W 073°54'2 5.5
2018-Jun-23 18:00N 40°14' W 073°55'4 5.6
2018-Jun-23 17:12N 40°09' W 073°55'1 5.6
2018-Jun-23 16:59N 40°08' W 073°55'3 5.6
2018-Jun-23 16:29N 40°05' W 073°55'4 5.5
2018-Jun-23 15:49N 40°02' W 073°56'2 5.5
2018-Jun-23 15:30N 39°60' W 073°56'3 5.4
2018-Jun-23 14:59N 39°57' W 073°57'3 5.5
2018-Jun-23 14:30N 39°55' W 073°57'3 5.6
2018-Jun-23 14:00N 39°52' W 073°58'3 5.6
2018-Jun-23 13:30N 39°49' W 073°59'3 5.6
2018-Jun-23 12:57N 39°46' W 073°59'2 5.6
2018-Jun-23 12:30N 39°44' W 073°60'3 5.5
2018-Jun-23 11:59N 39°41' W 074°01'3 5.4
2018-Jun-23 11:27N 39°38' W 074°02'2 5.4
2018-Jun-23 10:59N 39°36' W 074°04'3 5.4
2018-Jun-23 10:27N 39°34' W 074°06'2 5.3
2018-Jun-23 09:59N 39°31' W 074°08'3 5.2
2018-Jun-23 09:22N 39°29' W 074°10'82 5.3
2018-Jun-22 17:59N 38°15' W 074°54'4 5.3
2018-Jun-22 17:12N 38°11' W 074°56'1 5.1
2018-Jun-22 17:00N 38°10' W 074°56'15 4.7
2018-Jun-22 13:53N 37°57' W 075°05'2 5.1
2018-Jun-22 13:30N 37°55' W 075°06'3 5.2
2018-Jun-22 13:00N 37°53' W 075°07'3 5.1
2018-Jun-22 12:30N 37°50' W 075°09'3 5.4
2018-Jun-22 12:00N 37°48' W 075°11'3 5.6
2018-Jun-22 11:30N 37°46' W 075°12'3 5.5
2018-Jun-22 11:00N 37°44' W 075°14'3 5.8
2018-Jun-22 10:30N 37°41' W 075°17'4 6.1
2018-Jun-22 09:48N 37°38' W 075°20'2 6.3
2018-Jun-22 09:29N 37°36' W 075°21'3 6.3
2018-Jun-22 09:00N 37°33' W 075°23'3 6.3
2018-Jun-22 08:30N 37°31' W 075°25'3 6.2
2018-Jun-22 07:57N 37°28' W 075°27'3 6.2
2018-Jun-22 07:31N 37°25' W 075°29'3 6.1
2018-Jun-22 06:59N 37°23' W 075°31'4 5.9
2018-Jun-22 06:22N 37°19' W 075°32'2 6.0
2018-Jun-22 06:01N 37°17' W 075°34'3 6.0
2018-Jun-22 05:30N 37°14' W 075°35'3 5.9
2018-Jun-22 05:00N 37°12' W 075°36'  
2018-Jun-18 20:13N 27°07' W 079°54'210.1
2018-Jun-18 20:00N 27°05' W 079°55'5 9.9
2018-Jun-18 19:30N 27°00' W 079°56'5 9.9
2018-Jun-18 19:00N 26°55' W 079°57'5 9.8
2018-Jun-18 18:29N 26°50' W 079°58'5 7.3
2018-Jun-18 17:52N 26°46' W 080°01'1 4.0
2018-Jun-18 17:30N 26°46' W 080°03'1 0.0
2018-Jun-17 13:43N 26°46' W 080°03'0 0.1
2018-Jun-17 13:10N 26°46' W 080°03'0 0.7
2018-Jun-17 13:00N 26°46' W 080°03'2 4.9
2018-Jun-17 12:31N 26°47' W 080°01'1 2.1
2018-Jun-17 12:00N 26°49' W 080°01'1 1.6
2018-Jun-17 11:31N 26°49' W 080°01'1 1.7
2018-Jun-17 11:00N 26°50' W 080°01'1 1.8
2018-Jun-17 10:30N 26°51' W 080°00'2 3.1
2018-Jun-17 10:01N 26°53' W 080°00'2 4.3
2018-Jun-17 09:31N 26°55' W 080°00'2 5.0
2018-Jun-17 09:00N 26°57' W 080°00'3 5.9
2018-Jun-17 08:31N 27°00' W 080°00'4 6.6
2018-Jun-17 07:57N 27°04' W 080°00'  
Track history (hours):
 
Tides and Currents Weather Stations Pressure Air Temp Water Temp Dewpoint Dewpoint Depression Visibility Wind Speed Wind Dir Waves Ship Positions

Falcon

Owner: Allied Transportation Company, NORFOLK, VA. More information available from US FCC via Universal Licensing System and Coast Guard Vessel Documentation Center.

Last reported at 2018-Jun-24 01:00 UTC. Time now 2018-Jun-25 00:25 UTC.
Position N 40°52' W 073°56'.

Length 37 m; draft 6 m.

Type: Tug. MMSI: 366976720.

Date/timePositionNaut miles runAvg speedWind from/ knotsBaromVisibWave heightAir tempDewpointWater temp
2018-Jun-24 01:00N 40°52' W 073°56'4 7.3
2018-Jun-24 00:30N 40°49' W 073°58'4 7.1
2018-Jun-24 00:00N 40°46' W 074°01'4 7.2
2018-Jun-23 23:30N 40°42' W 074°02'4 7.0
2018-Jun-23 23:00N 40°39' W 074°03'3 6.9
2018-Jun-23 22:30N 40°36' W 074°02'3 6.9
2018-Jun-23 22:00N 40°32' W 074°01'3 5.7
2018-Jun-23 21:30N 40°31' W 073°58'12 4.6
2018-Jun-23 19:01N 40°19' W 073°54'0 5.3
2018-Jun-23 19:00N 40°19' W 073°54'4 5.5
2018-Jun-23 18:22N 40°16' W 073°54'2 5.5
2018-Jun-23 18:00N 40°14' W 073°55'4 5.6
2018-Jun-23 17:12N 40°09' W 073°55'1 5.6
2018-Jun-23 16:59N 40°08' W 073°55'3 5.6
2018-Jun-23 16:29N 40°05' W 073°55'4 5.5
2018-Jun-23 15:49N 40°02' W 073°56'2 5.5
2018-Jun-23 15:30N 39°60' W 073°56'3 5.4
2018-Jun-23 14:59N 39°57' W 073°57'3 5.5
2018-Jun-23 14:30N 39°55' W 073°57'3 5.6
2018-Jun-23 14:00N 39°52' W 073°58'3 5.6
2018-Jun-23 13:30N 39°49' W 073°59'3 5.6
2018-Jun-23 12:57N 39°46' W 073°59'2 5.6
2018-Jun-23 12:30N 39°44' W 073°60'3 5.5
2018-Jun-23 11:59N 39°41' W 074°01'3 5.4
2018-Jun-23 11:27N 39°38' W 074°02'2 5.4
2018-Jun-23 10:59N 39°36' W 074°04'3 5.4
2018-Jun-23 10:27N 39°34' W 074°06'2 5.3
2018-Jun-23 09:59N 39°31' W 074°08'3 5.2
2018-Jun-23 09:22N 39°29' W 074°10'82 5.3
2018-Jun-22 17:59N 38°15' W 074°54'4 5.3
2018-Jun-22 17:12N 38°11' W 074°56'1 5.1
2018-Jun-22 17:00N 38°10' W 074°56'15 4.7
2018-Jun-22 13:53N 37°57' W 075°05'2 5.1
2018-Jun-22 13:30N 37°55' W 075°06'3 5.2
2018-Jun-22 13:00N 37°53' W 075°07'3 5.1
2018-Jun-22 12:30N 37°50' W 075°09'3 5.4
2018-Jun-22 12:00N 37°48' W 075°11'3 5.6
2018-Jun-22 11:30N 37°46' W 075°12'3 5.5
2018-Jun-22 11:00N 37°44' W 075°14'3 5.8
2018-Jun-22 10:30N 37°41' W 075°17'4 6.1
2018-Jun-22 09:48N 37°38' W 075°20'2 6.3
2018-Jun-22 09:29N 37°36' W 075°21'3 6.3
2018-Jun-22 09:00N 37°33' W 075°23'3 6.3
2018-Jun-22 08:30N 37°31' W 075°25'3 6.2
2018-Jun-22 07:57N 37°28' W 075°27'3 6.2
2018-Jun-22 07:31N 37°25' W 075°29'3 6.1
2018-Jun-22 06:59N 37°23' W 075°31'4 5.9
2018-Jun-22 06:22N 37°19' W 075°32'2 6.0
2018-Jun-22 06:01N 37°17' W 075°34'3 6.0
2018-Jun-22 05:30N 37°14' W 075°35'3 5.9
2018-Jun-22 05:00N 37°12' W 075°36'  
2018-Jun-18 20:13N 27°07' W 079°54'210.1
2018-Jun-18 20:00N 27°05' W 079°55'5 9.9
2018-Jun-18 19:30N 27°00' W 079°56'5 9.9
2018-Jun-18 19:00N 26°55' W 079°57'5 9.8
2018-Jun-18 18:29N 26°50' W 079°58'5 7.3
2018-Jun-18 17:52N 26°46' W 080°01'1 4.0
2018-Jun-18 17:30N 26°46' W 080°03'1 0.0
2018-Jun-17 13:43N 26°46' W 080°03'0 0.1
2018-Jun-17 13:10N 26°46' W 080°03'0 0.7
2018-Jun-17 13:00N 26°46' W 080°03'2 4.9
2018-Jun-17 12:31N 26°47' W 080°01'1 2.1
2018-Jun-17 12:00N 26°49' W 080°01'1 1.6
2018-Jun-17 11:31N 26°49' W 080°01'1 1.7
2018-Jun-17 11:00N 26°50' W 080°01'1 1.8
2018-Jun-17 10:30N 26°51' W 080°00'2 3.1
2018-Jun-17 10:01N 26°53' W 080°00'2 4.3
2018-Jun-17 09:31N 26°55' W 080°00'2 5.0
2018-Jun-17 09:00N 26°57' W 080°00'3 5.9
2018-Jun-17 08:31N 27°00' W 080°00'4 6.6
2018-Jun-17 07:57N 27°04' W 080°00'  

Dump ship's entire track history